Time;durP1;ratioP1;P1;durP2;ratioP2;P2;SDS_P1;SDS_P2;PMS_P1;PMS_P2;Temp;Humidity;BMP_temperature;BMP_pressure;BME280_temperature;BME280_humidity;BME280_pressure;Samples;Min_cycle;Max_cycle;Signal;HPM_P1;HPM_P2
2023/03/18 09:53:31;;;;;;;4.60;1.40;;;21.10;62.30;;;;;;5110807;23;20503;-95
2023/03/18 09:56:00;;;;;;;5.90;1.20;;;21.10;62.40;;;;;;5017241;28;20487;-92
2023/03/18 09:58:31;;;;;;;4.10;1.20;;;21.20;62.60;;;;;;5016090;28;21073;-91
2023/03/18 10:01:01;;;;;;;6.70;1.20;;;21.20;62.70;;;;;;5017046;28;20444;-92
2023/03/18 10:03:52;;;;;;;2.07;1.10;;;21.30;62.50;;;;;;5025505;28;20455;-96
2023/03/18 10:06:23;;;;;;;6.43;1.50;;;21.30;62.40;;;;;;5026595;28;20443;-96
2023/03/18 10:09:00;;;;;;;10.97;1.87;;;21.30;62.40;;;;;;5002845;28;20476;-91
2023/03/18 10:11:31;;;;;;;6.97;1.77;;;21.30;62.30;;;;;;4996375;28;20927;-88
2023/03/18 10:14:17;;;;;;;4.20;1.20;;;21.30;62.20;;;;;;4996212;28;20494;-91
2023/03/18 10:16:55;;;;;;;6.63;2.20;;;21.40;62.30;;;;;;4995830;28;20463;-89
2023/03/18 10:19:28;;;;;;;5.00;1.73;;;21.40;61.60;;;;;;4997596;28;20480;-92
2023/03/18 10:22:08;;;;;;;5.93;1.10;;;21.40;62.30;;;;;;4999919;28;20443;-95
2023/03/18 10:24:48;;;;;;;2.30;1.00;;;21.40;61.00;;;;;;5001962;28;20440;-96
2023/03/18 10:27:21;;;;;;;3.43;1.10;;;21.40;60.70;;;;;;4997910;28;20912;-93
2023/03/18 10:29:57;;;;;;;2.23;1.30;;;21.40;60.70;;;;;;4996381;28;20450;-93
2023/03/18 10:32:35;;;;;;;3.33;1.00;;;21.40;60.80;;;;;;4996959;28;20904;-93
2023/03/18 10:35:21;;;;;;;1.40;0.90;;;21.40;60.90;;;;;;4996804;28;20817;-94
2023/03/18 10:38:01;;;;;;;2.90;0.93;;;21.50;61.20;;;;;;5011186;23;20483;-96
2023/03/18 10:40:35;;;;;;;2.97;1.00;;;21.60;61.30;;;;;;4998599;28;20508;-88
2023/03/18 10:43:04;;;;;;;3.30;1.60;;;21.80;61.40;;;;;;4996380;28;20535;-92
2023/03/18 10:45:33;;;;;;;2.53;1.00;;;21.60;61.30;;;;;;4996704;28;20802;-92
2023/03/18 10:48:09;;;;;;;5.03;1.20;;;21.70;61.30;;;;;;4995556;28;21031;-90
2023/03/18 10:50:37;;;;;;;7.27;1.20;;;21.80;61.30;;;;;;4995550;28;20447;-90
2023/03/18 10:53:16;;;;;;;4.30;1.17;;;21.90;61.40;;;;;;4995682;28;20533;-91
2023/03/18 10:55:53;;;;;;;1.70;0.93;;;21.90;61.30;;;;;;4995574;28;20491;-90
2023/03/18 10:58:20;;;;;;;2.50;1.10;;;22.20;61.50;;;;;;4995700;28;20471;-89
2023/03/18 11:00:48;;;;;;;2.30;1.10;;;22.00;61.10;;;;;;4995290;28;20448;-90
2023/03/18 11:03:22;;;;;;;4.83;1.27;;;22.00;61.00;;;;;;4995468;28;20456;-90
2023/03/18 11:05:51;;;;;;;2.50;1.10;;;22.10;61.10;;;;;;4995412;28;20442;-91
2023/03/18 11:08:33;;;;;;;8.87;1.70;;;22.20;61.30;;;;;;4994717;28;20559;-91
2023/03/18 11:11:13;;;;;;;1.83;1.17;;;22.10;61.10;;;;;;4995044;28;20444;-90
2023/03/18 11:13:46;;;;;;;6.13;1.37;;;22.10;61.10;;;;;;4994889;28;20455;-90
2023/03/18 11:16:24;;;;;;;1.87;1.00;;;22.10;60.90;;;;;;4994079;28;20540;-90
2023/03/18 11:18:53;;;;;;;1.63;1.10;;;22.20;61.20;;;;;;4994540;28;20499;-90
2023/03/18 11:21:20;;;;;;;3.97;1.10;;;22.20;62.10;;;;;;4994614;28;20523;-90
2023/03/18 11:24:09;;;;;;;1.20;0.90;;;22.20;61.30;;;;;;4995105;28;20450;-90
2023/03/18 11:26:52;;;;;;;3.00;1.00;;;22.20;61.30;;;;;;4996042;28;20500;-90
2023/03/18 11:29:23;;;;;;;4.80;1.10;;;22.20;61.40;;;;;;4994836;28;20443;-91
2023/03/18 11:31:53;;;;;;;1.30;1.00;;;22.30;61.40;;;;;;4995142;28;20451;-90
2023/03/18 11:34:21;;;;;;;2.70;1.17;;;22.20;61.30;;;;;;4994884;28;20452;-90
2023/03/18 11:37:03;;;;;;;1.93;1.10;;;22.20;61.30;;;;;;4994682;28;21067;-90
2023/03/18 11:39:32;;;;;;;2.27;1.20;;;22.40;61.60;;;;;;4994725;28;20861;-90
2023/03/18 11:42:01;;;;;;;1.30;1.00;;;22.30;61.50;;;;;;4994661;28;20522;-90
2023/03/18 11:44:33;;;;;;;2.33;0.97;;;22.40;61.60;;;;;;4995259;28;20943;-89
2023/03/18 11:47:05;;;;;;;1.53;1.03;;;22.40;61.50;;;;;;5008245;28;20464;-95
2023/03/18 11:49:32;;;;;;;1.23;1.00;;;22.30;60.90;;;;;;4991686;28;20441;-93
2023/03/18 11:52:23;;;;;;;1.63;1.10;;;22.50;61.20;;;;;;4991177;28;20608;-91
2023/03/18 11:55:19;;;;;;;1.67;1.03;;;22.30;61.40;;;;;;4979796;28;20925;-91
2023/03/18 11:58:07;;;;;;;3.50;1.20;;;22.30;61.50;;;;;;4978755;28;20437;-91
2023/03/18 12:00:44;;;;;;;3.67;1.60;;;22.30;61.60;;;;;;4975911;28;20528;-92
2023/03/18 12:03:50;;;;;;;1.40;1.00;;;22.40;61.60;;;;;;4975842;28;20519;-91
2023/03/18 12:06:21;;;;;;;1.90;0.97;;;22.40;61.60;;;;;;4983974;28;20449;-91
2023/03/18 12:09:00;;;;;;;4.47;1.30;;;22.50;61.90;;;;;;4978263;28;20473;-91
2023/03/18 12:11:41;;;;;;;2.20;0.90;;;22.50;61.70;;;;;;4975714;28;20449;-91
2023/03/18 12:14:19;;;;;;;1.37;1.03;;;22.60;61.60;;;;;;4989301;28;20463;-91
2023/03/18 12:16:56;;;;;;;1.50;1.00;;;22.50;61.50;;;;;;4989502;28;20432;-91
2023/03/18 12:19:40;;;;;;;1.40;1.20;;;22.50;61.60;;;;;;4976666;28;20481;-90
2023/03/18 12:22:36;;;;;;;2.40;1.60;;;22.40;61.50;;;;;;4994244;28;20436;-90
2023/03/18 12:25:20;;;;;;;1.93;1.30;;;22.20;61.20;;;;;;4980375;28;20460;-91
2023/03/18 12:27:56;;;;;;;2.50;0.93;;;22.30;61.80;;;;;;4996138;28;20451;-92
2023/03/18 12:30:49;;;;;;;2.47;1.23;;;22.30;61.40;;;;;;4993195;28;20443;-92
2023/03/18 12:33:32;;;;;;;1.17;0.90;;;22.30;61.40;;;;;;4984380;28;20441;-91
2023/03/18 12:36:09;;;;;;;9.43;1.40;;;22.30;61.50;;;;;;4979346;28;20441;-91
2023/03/18 12:39:01;;;;;;;1.57;1.10;;;22.30;61.30;;;;;;4979036;28;20571;-91
2023/03/18 12:41:40;;;;;;;9.70;1.23;;;22.30;61.30;;;;;;4979878;28;20795;-91
2023/03/18 12:44:19;;;;;;;3.20;1.27;;;22.30;61.20;;;;;;4990883;28;20439;-91
2023/03/18 12:46:52;;;;;;;1.60;1.27;;;22.30;61.10;;;;;;4994248;28;20478;-91
2023/03/18 12:49:24;;;;;;;2.17;1.00;;;22.30;61.00;;;;;;4979723;28;20892;-90
2023/03/18 12:51:59;;;;;;;1.73;1.20;;;22.30;60.90;;;;;;4998238;28;20464;-93
2023/03/18 12:54:30;;;;;;;1.47;1.00;;;22.30;60.90;;;;;;4979729;28;20459;-90
2023/03/18 12:57:02;;;;;;;2.97;1.50;;;22.30;60.90;;;;;;4980000;28;20536;-90
2023/03/18 12:59:38;;;;;;;1.20;0.90;;;22.30;61.70;;;;;;4993324;28;20977;-91
2023/03/18 13:02:32;;;;;;;2.53;1.13;;;22.30;60.90;;;;;;4999348;28;20452;-92
2023/03/18 13:05:04;;;;;;;1.30;1.10;;;22.30;60.90;;;;;;4994762;28;20957;-89
2023/03/18 13:07:41;;;;;;;2.17;1.20;;;22.30;60.90;;;;;;4997889;28;20507;-92
2023/03/18 13:10:20;;;;;;;1.70;1.30;;;22.30;61.00;;;;;;4994408;28;20444;-91
2023/03/18 13:12:51;;;;;;;3.40;1.23;;;22.20;60.90;;;;;;4998379;28;20440;-92
2023/03/18 13:15:25;;;;;;;1.93;1.17;;;22.20;61.00;;;;;;4988097;28;20428;-90
2023/03/18 13:17:58;;;;;;;1.63;1.07;;;22.30;61.20;;;;;;4998614;28;20448;-94
2023/03/18 13:20:29;;;;;;;1.20;1.03;;;22.20;62.00;;;;;;4997280;28;20475;-95
2023/03/18 13:23:25;;;;;;;5.93;1.30;;;22.30;61.50;;;;;;4999914;28;20437;-93
2023/03/18 13:26:05;;;;;;;1.30;1.00;;;22.30;61.60;;;;;;4997777;28;20459;-91
2023/03/18 13:28:57;;;;;;;1.37;0.90;;;22.30;61.70;;;;;;4997609;28;20454;-93
2023/03/18 13:31:36;;;;;;;4.30;1.33;;;22.50;61.70;;;;;;4997432;28;20532;-93
2023/03/18 13:34:49;;;;;;;1.63;1.10;;;22.50;61.70;;;;;;4997257;28;20519;-93
2023/03/18 13:37:44;;;;;;;4.90;3.90;;;22.30;61.50;;;;;;4996995;28;20507;-93
2023/03/18 13:40:27;;;;;;;16.20;11.50;;;22.20;61.70;;;;;;4996609;28;20514;-93
2023/03/18 13:42:58;;;;;;;34.27;20.60;;;22.30;61.90;;;;;;4996995;28;20421;-92
2023/03/18 13:45:29;;;;;;;37.00;21.20;;;22.30;61.90;;;;;;4997134;28;21019;-92
2023/03/18 13:47:59;;;;;;;47.70;27.97;;;22.40;63.00;;;;;;4996568;28;20448;-92
2023/03/18 13:50:38;;;;;;;64.33;33.23;;;22.40;62.30;;;;;;4996446;28;20443;-93
2023/03/18 13:53:18;;;;;;;54.50;34.23;;;22.40;62.30;;;;;;4997020;28;20428;-92
2023/03/18 13:55:49;;;;;;;62.00;34.70;;;22.40;62.30;;;;;;4996496;28;20498;-93
2023/03/18 13:58:22;;;;;;;60.83;37.93;;;22.40;62.30;;;;;;4997134;28;20531;-92
2023/03/18 14:01:14;;;;;;;69.40;35.90;;;22.50;62.40;;;;;;4996334;28;20475;-93
2023/03/18 14:03:55;;;;;;;71.37;36.20;;;22.50;62.30;;;;;;4996922;28;20452;-93
2023/03/18 14:06:38;;;;;;;68.87;36.50;;;22.60;62.20;;;;;;4996111;28;20449;-93
2023/03/18 14:09:23;;;;;;;59.17;36.03;;;22.60;62.10;;;;;;4977396;28;20928;-93
2023/03/18 14:11:52;;;;;;;58.73;33.67;;;22.60;62.00;;;;;;4977507;28;20536;-93
2023/03/18 14:14:40;;;;;;;57.63;35.17;;;22.60;61.80;;;;;;4977821;28;20449;-92
2023/03/18 14:17:21;;;;;;;54.13;33.50;;;22.60;62.00;;;;;;4995058;28;20972;-93
2023/03/18 14:19:56;;;;;;;41.40;27.00;;;22.50;62.10;;;;;;4996362;28;20480;-91
2023/03/18 14:22:29;;;;;;;55.27;31.43;;;22.40;61.40;;;;;;4997821;28;20448;-94
2023/03/18 14:25:55;;;;;;;54.27;32.27;;;22.40;61.80;;;;;;5030922;23;20479;-95
2023/03/18 14:28:25;;;;;;;53.07;29.47;;;22.30;61.80;;;;;;5044661;23;20986;-92
2023/03/18 14:31:12;;;;;;;51.10;29.60;;;22.30;61.90;;;;;;5018348;28;20514;-93
2023/03/18 14:39:51;;;;;;;46.60;28.80;;;22.00;61.70;;;;;;5064971;23;20486;-94
2023/03/18 14:42:31;;;;;;;40.20;25.70;;;22.20;62.00;;;;;;5016244;28;20467;-95
2023/03/18 14:45:07;;;;;;;45.93;26.53;;;22.20;61.90;;;;;;5015254;28;20914;-92
2023/03/18 14:47:48;;;;;;;49.90;25.30;;;22.10;61.90;;;;;;5019812;28;20833;-94
2023/03/18 14:53:12;;;;;;;45.60;24.97;;;22.10;61.90;;;;;;5037913;23;20490;-94
2023/03/18 14:55:40;;;;;;;30.93;19.57;;;22.10;61.90;;;;;;4977457;28;20481;-91
2023/03/18 14:58:14;;;;;;;30.13;18.30;;;22.20;61.30;;;;;;4979581;28;20433;-88
2023/03/18 15:00:42;;;;;;;21.87;12.13;;;22.00;61.30;;;;;;4980208;28;20487;-91
2023/03/18 15:03:23;;;;;;;25.87;14.40;;;22.00;60.60;;;;;;4977354;28;20461;-94
2023/03/18 15:06:00;;;;;;;30.93;18.00;;;21.80;60.60;;;;;;4983716;28;20468;-95
2023/03/18 15:08:32;;;;;;;23.60;15.77;;;21.90;61.70;;;;;;4958319;29;20453;-94
2023/03/18 15:11:04;;;;;;;25.00;13.37;;;21.90;61.60;;;;;;4963089;29;20442;-90
2023/03/18 15:13:33;;;;;;;31.73;15.77;;;21.90;61.90;;;;;;4993858;28;20437;-92
2023/03/18 15:16:04;;;;;;;26.57;13.60;;;21.90;62.30;;;;;;4963022;28;20493;-89
2023/03/18 15:18:53;;;;;;;30.80;14.40;;;21.90;62.30;;;;;;4958893;29;20438;-94
2023/03/18 15:23:48;;;;;;;24.67;14.87;;;21.90;62.80;;;;;;5001563;23;20506;-93
2023/03/18 15:26:21;;;;;;;26.13;13.83;;;21.90;62.90;;;;;;4995590;28;20641;-89
2023/03/18 15:28:48;;;;;;;19.60;14.30;;;21.90;63.00;;;;;;4994923;28;20440;-88
2023/03/18 15:31:25;;;;;;;21.33;14.10;;;21.90;63.20;;;;;;4998013;28;20507;-92
2023/03/18 15:34:05;;;;;;;20.50;12.53;;;21.90;63.50;;;;;;5002148;28;20520;-92
2023/03/18 15:36:41;;;;;;;25.03;14.10;;;21.90;63.50;;;;;;4998963;28;20979;-89
2023/03/18 15:39:37;;;;;;;24.10;14.10;;;21.90;63.50;;;;;;4996995;28;20431;-91
2023/03/18 15:42:20;;;;;;;29.83;13.13;;;21.90;63.50;;;;;;5007669;23;20483;-94
2023/03/18 15:44:54;;;;;;;23.07;13.53;;;21.90;64.10;;;;;;5015852;28;20532;-95
2023/03/18 15:47:26;;;;;;;24.60;13.53;;;21.90;64.20;;;;;;5015108;28;20453;-91
2023/03/18 15:49:54;;;;;;;29.90;14.07;;;21.90;64.20;;;;;;5018476;28;20535;-90
2023/03/18 15:54:48;;;;;;;27.67;13.47;;;21.90;64.20;;;;;;5030972;23;20473;-91
2023/03/18 15:57:29;;;;;;;17.90;12.40;;;21.90;64.20;;;;;;5020982;28;20188;-93
2023/03/18 15:59:55;;;;;;;19.93;12.23;;;21.90;64.20;;;;;;4997349;28;20483;-91
2023/03/18 16:02:23;;;;;;;21.83;12.80;;;21.90;64.20;;;;;;5014062;28;20538;-93
2023/03/18 16:05:08;;;;;;;20.80;11.43;;;21.90;64.20;;;;;;5014104;28;20459;-94
2023/03/18 16:07:47;;;;;;;24.33;13.40;;;21.90;64.20;;;;;;4999915;28;20476;-92
2023/03/18 16:10:21;;;;;;;16.67;11.20;;;21.90;64.20;;;;;;4998645;28;20930;-89
2023/03/18 16:12:52;;;;;;;21.10;12.50;;;21.90;64.20;;;;;;4995531;28;20539;-92
2023/03/18 16:15:23;;;;;;;24.43;11.17;;;21.90;64.30;;;;;;4995490;28;20429;-92
2023/03/18 16:17:51;;;;;;;16.53;11.37;;;21.80;64.10;;;;;;4995416;28;20452;-91
2023/03/18 16:20:20;;;;;;;21.27;10.20;;;21.80;64.20;;;;;;4995550;28;20492;-96
2023/03/18 16:22:47;;;;;;;16.67;11.70;;;21.80;64.10;;;;;;4994762;28;20448;-92
2023/03/18 16:25:14;;;;;;;18.77;9.27;;;21.80;64.10;;;;;;4994362;28;20449;-92
2023/03/18 16:27:43;;;;;;;16.70;10.10;;;21.80;64.00;;;;;;4995175;28;20540;-95
2023/03/18 16:30:18;;;;;;;26.17;11.30;;;21.90;64.20;;;;;;4995684;28;20464;-91
2023/03/18 16:32:46;;;;;;;17.20;9.93;;;21.80;64.00;;;;;;4995488;28;20475;-92
2023/03/18 16:35:14;;;;;;;15.13;9.70;;;21.80;64.10;;;;;;4996382;28;20451;-94
2023/03/18 16:37:42;;;;;;;21.83;10.63;;;21.80;64.10;;;;;;4998675;28;20560;-91
2023/03/18 16:40:16;;;;;;;20.30;9.90;;;21.80;64.00;;;;;;4998197;28;20475;-92
2023/03/18 16:42:43;;;;;;;19.43;10.60;;;21.80;64.00;;;;;;4995492;28;20460;-94
2023/03/18 16:45:17;;;;;;;15.83;10.43;;;21.80;63.80;;;;;;4995131;28;20440;-93
2023/03/18 16:47:46;;;;;;;15.23;10.00;;;21.80;64.00;;;;;;4995159;28;20939;-92
2023/03/18 16:50:18;;;;;;;21.33;10.53;;;21.70;63.80;;;;;;4996702;28;20456;-92
2023/03/18 16:52:46;;;;;;;14.50;9.53;;;21.70;63.90;;;;;;4997847;28;20454;-90
2023/03/18 16:55:14;;;;;;;16.93;9.47;;;21.70;63.80;;;;;;5002048;28;20457;-90
2023/03/18 16:57:45;;;;;;;16.27;9.70;;;21.70;63.80;;;;;;5004130;28;20424;-91
2023/03/18 17:00:21;;;;;;;16.47;8.83;;;21.70;63.80;;;;;;5005930;28;20560;-93
2023/03/18 17:02:52;;;;;;;19.37;10.07;;;21.70;63.90;;;;;;5005613;28;20429;-95
2023/03/18 17:05:27;;;;;;;17.93;9.60;;;21.70;63.90;;;;;;5000922;28;20524;-93
2023/03/18 17:07:54;;;;;;;11.27;8.10;;;21.70;64.10;;;;;;5010927;23;20504;-93
2023/03/18 17:10:25;;;;;;;15.53;9.43;;;21.70;64.30;;;;;;5016824;28;20459;-92
2023/03/18 17:13:39;;;;;;;17.63;8.67;;;21.70;64.20;;;;;;5011205;28;20833;-95
2023/03/18 17:16:16;;;;;;;16.13;7.63;;;21.70;64.20;;;;;;5004012;28;20454;-94
2023/03/18 17:22:19;;;;;;;11.57;7.83;;;21.70;64.00;;;;;;5015931;28;20472;-92
2023/03/18 17:24:48;;;;;;;12.63;7.87;;;21.70;64.20;;;;;;5029787;28;20470;-92
2023/03/18 17:27:17;;;;;;;10.27;6.50;;;21.60;64.00;;;;;;5010138;28;20416;-90
2023/03/18 17:29:50;;;;;;;12.60;7.70;;;21.60;63.80;;;;;;5021557;28;20495;-91
2023/03/18 17:32:20;;;;;;;13.10;8.07;;;21.60;64.30;;;;;;5021994;28;20460;-92
2023/03/18 17:34:49;;;;;;;13.53;8.23;;;21.60;64.00;;;;;;5015871;28;20460;-92
2023/03/18 17:37:16;;;;;;;12.60;7.10;;;21.60;63.90;;;;;;4997085;28;21063;-90
2023/03/18 17:39:43;;;;;;;18.60;8.77;;;21.60;64.00;;;;;;4997455;28;20448;-92
2023/03/18 17:42:27;;;;;;;20.47;8.47;;;21.60;63.90;;;;;;4997407;28;20518;-94
2023/03/18 17:44:54;;;;;;;14.70;7.60;;;21.60;63.90;;;;;;4997314;28;20499;-89
2023/03/18 17:47:22;;;;;;;8.87;6.70;;;21.60;63.90;;;;;;5008002;28;20439;-90
2023/03/18 17:52:54;;;;;;;15.03;7.23;;;21.60;64.40;;;;;;5018800;28;20450;-95
2023/03/18 17:58:16;;;;;;;10.57;6.47;;;21.60;64.00;;;;;;5024493;28;20454;-92
2023/03/18 18:00:44;;;;;;;10.73;8.00;;;21.60;64.20;;;;;;5018485;28;20505;-91
2023/03/18 18:03:21;;;;;;;9.30;6.53;;;21.60;64.10;;;;;;5017449;28;20447;-91
2023/03/18 18:05:48;;;;;;;10.43;7.20;;;21.60;64.20;;;;;;5077906;23;20490;-89
2023/03/18 18:08:31;;;;;;;11.07;6.17;;;21.60;64.00;;;;;;5009276;28;20447;-88
2023/03/18 18:11:25;;;;;;;12.30;6.90;;;21.60;64.10;;;;;;4998547;28;20480;-94
2023/03/18 18:13:55;;;;;;;10.87;6.63;;;21.60;64.60;;;;;;4996640;28;20432;-93
2023/03/18 18:16:22;;;;;;;9.90;6.83;;;21.50;64.20;;;;;;4999379;28;20507;-92
2023/03/18 18:18:51;;;;;;;10.40;7.60;;;21.60;64.40;;;;;;4998608;28;20444;-95
2023/03/18 18:21:20;;;;;;;12.33;6.80;;;21.50;64.30;;;;;;4998715;28;20483;-94
2023/03/18 18:23:47;;;;;;;11.70;7.13;;;21.60;64.40;;;;;;4999228;28;20507;-94
2023/03/18 18:26:16;;;;;;;14.67;6.53;;;21.50;64.40;;;;;;4996869;28;20458;-92
2023/03/18 18:28:44;;;;;;;11.50;6.37;;;21.50;64.30;;;;;;4996602;28;20940;-92
2023/03/18 18:31:13;;;;;;;8.60;6.43;;;21.50;64.10;;;;;;4996402;28;20498;-92
2023/03/18 18:33:42;;;;;;;11.37;6.17;;;21.50;64.00;;;;;;4996933;28;20543;-94
2023/03/18 18:36:12;;;;;;;11.90;6.67;;;21.50;64.10;;;;;;4996790;28;20824;-93
2023/03/18 18:38:39;;;;;;;8.53;4.60;;;21.50;64.10;;;;;;5005601;28;20458;-95
2023/03/18 18:41:07;;;;;;;11.83;6.30;;;21.50;63.90;;;;;;5016683;28;20821;-93
2023/03/18 18:43:34;;;;;;;7.30;5.00;;;21.60;64.00;;;;;;5016055;28;20475;-87
2023/03/18 18:46:01;;;;;;;10.30;5.23;;;21.60;63.60;;;;;;4998708;28;20438;-91
2023/03/18 18:48:30;;;;;;;17.13;5.83;;;21.50;63.00;;;;;;5015770;28;20451;-91
2023/03/18 18:50:58;;;;;;;10.17;5.40;;;21.50;63.00;;;;;;5015623;28;20769;-92
2023/03/18 18:53:28;;;;;;;10.27;5.90;;;21.70;63.20;;;;;;5016255;28;20465;-91
2023/03/18 18:55:58;;;;;;;8.30;5.80;;;21.60;63.30;;;;;;5015603;28;20435;-91
2023/03/18 18:58:29;;;;;;;11.07;6.10;;;21.60;63.60;;;;;;5015783;28;20470;-92
2023/03/18 19:00:56;;;;;;;8.63;5.13;;;21.60;63.40;;;;;;5015306;28;20472;-91
2023/03/18 19:03:25;;;;;;;9.33;4.63;;;21.60;63.20;;;;;;5015725;28;20447;-91
2023/03/18 19:05:54;;;;;;;6.60;4.97;;;21.60;63.40;;;;;;5014977;28;20479;-93
2023/03/18 19:08:24;;;;;;;7.93;5.63;;;21.60;63.40;;;;;;5015034;28;20817;-92
2023/03/18 19:10:54;;;;;;;6.40;5.00;;;21.60;63.50;;;;;;5015405;28;20448;-92
2023/03/18 19:13:24;;;;;;;7.93;5.60;;;21.60;63.60;;;;;;5014823;28;20443;-94
2023/03/18 19:15:53;;;;;;;11.83;5.47;;;21.60;63.50;;;;;;5015250;28;20455;-90
2023/03/18 19:18:22;;;;;;;31.57;24.03;;;21.60;63.50;;;;;;5015250;28;20494;-92
2023/03/18 19:20:49;;;;;;;46.80;39.63;;;21.60;63.70;;;;;;5015526;28;20480;-92
2023/03/18 19:23:18;;;;;;;47.03;38.80;;;21.60;64.20;;;;;;5014799;28;20915;-90
2023/03/18 19:25:46;;;;;;;48.53;33.93;;;21.60;64.10;;;;;;5014160;28;20446;-92
2023/03/18 19:28:40;;;;;;;44.60;38.60;;;21.60;63.90;;;;;;5015124;28;20476;-94
2023/03/18 19:31:07;;;;;;;44.57;35.50;;;21.60;63.80;;;;;;5015040;28;20939;-92
2023/03/18 19:33:35;;;;;;;48.43;36.10;;;21.60;63.60;;;;;;5014267;28;20518;-94
2023/03/18 19:36:03;;;;;;;52.33;42.00;;;21.60;63.60;;;;;;5014947;28;20533;-92
2023/03/18 19:38:30;;;;;;;38.80;34.57;;;21.60;63.50;;;;;;5014410;28;20448;-93
2023/03/18 19:40:57;;;;;;;46.73;36.67;;;21.60;63.50;;;;;;5014419;28;20482;-93
2023/03/18 19:43:28;;;;;;;45.57;37.07;;;21.60;63.50;;;;;;5014823;28;20543;-90
2023/03/18 19:45:55;;;;;;;51.73;41.13;;;21.60;64.40;;;;;;5014363;28;20961;-90
2023/03/18 19:48:26;;;;;;;46.30;39.40;;;21.60;63.70;;;;;;5014489;28;20545;-91
2023/03/18 19:50:53;;;;;;;39.00;34.80;;;21.60;63.70;;;;;;5014157;28;20455;-93
2023/03/18 19:53:20;;;;;;;44.00;36.00;;;21.60;63.70;;;;;;5014810;28;20454;-91
2023/03/18 19:55:48;;;;;;;38.37;34.33;;;21.60;63.60;;;;;;5014720;28;20458;-91
2023/03/18 19:58:21;;;;;;;40.90;33.73;;;21.60;63.60;;;;;;5015195;28;20443;-92
2023/03/18 20:00:50;;;;;;;36.40;32.10;;;21.60;63.50;;;;;;5017729;28;20861;-93
2023/03/18 20:03:18;;;;;;;38.33;33.43;;;21.60;63.60;;;;;;5038704;28;20435;-91
2023/03/18 20:05:46;;;;;;;40.17;31.37;;;21.60;63.60;;;;;;5032230;28;20478;-92
2023/03/18 20:08:12;;;;;;;40.30;35.77;;;21.60;63.60;;;;;;5014191;28;20451;-93
2023/03/18 20:10:41;;;;;;;37.40;32.00;;;21.60;63.70;;;;;;5014334;28;20447;-90
2023/03/18 20:13:13;;;;;;;38.87;33.90;;;21.60;63.70;;;;;;5014920;28;20450;-91
2023/03/18 20:15:40;;;;;;;35.97;32.00;;;21.60;63.70;;;;;;5014670;28;20439;-95
2023/03/18 20:18:15;;;;;;;41.23;32.43;;;21.60;63.80;;;;;;5013833;28;20443;-91
2023/03/18 20:20:43;;;;;;;40.17;34.17;;;21.60;63.90;;;;;;5013896;28;20435;-91
2023/03/18 20:23:15;;;;;;;37.00;32.73;;;21.60;64.00;;;;;;5017139;28;21018;-95
2023/03/18 20:25:44;;;;;;;34.27;30.57;;;21.60;64.00;;;;;;5014174;28;20435;-91
2023/03/18 20:28:15;;;;;;;40.87;33.93;;;21.60;63.90;;;;;;5014036;28;20443;-92
2023/03/18 20:30:43;;;;;;;38.20;32.10;;;21.60;64.10;;;;;;5013753;28;20551;-92
2023/03/18 20:33:11;;;;;;;38.30;32.50;;;21.60;64.10;;;;;;5013684;28;20451;-90
2023/03/18 20:35:40;;;;;;;32.70;28.67;;;21.60;64.10;;;;;;5013873;28;20464;-93
2023/03/18 20:38:14;;;;;;;33.10;29.63;;;21.60;64.10;;;;;;5013777;28;20786;-90
2023/03/18 20:40:45;;;;;;;38.80;30.43;;;21.60;64.10;;;;;;5014137;28;20949;-90
2023/03/18 20:43:14;;;;;;;33.83;30.23;;;21.60;64.10;;;;;;5013543;28;20483;-90
2023/03/18 20:45:41;;;;;;;37.10;31.17;;;21.60;64.10;;;;;;5013974;28;20432;-91
2023/03/18 20:48:08;;;;;;;34.43;29.90;;;21.60;64.20;;;;;;5013677;28;20774;-90
2023/03/18 20:50:37;;;;;;;33.63;30.20;;;21.50;64.10;;;;;;5016428;28;20458;-92
2023/03/18 20:53:07;;;;;;;34.50;30.70;;;21.60;64.20;;;;;;5017438;28;20447;-92
2023/03/18 20:55:35;;;;;;;37.47;29.27;;;21.50;64.10;;;;;;5017422;28;20534;-92
2023/03/18 20:58:02;;;;;;;39.50;32.40;;;21.50;64.20;;;;;;5017699;28;20454;-92
2023/03/18 21:00:31;;;;;;;33.60;30.00;;;21.60;64.20;;;;;;5017645;28;20453;-92
2023/03/18 21:03:02;;;;;;;32.33;28.83;;;21.60;64.30;;;;;;5017223;28;20843;-90
2023/03/18 21:05:29;;;;;;;34.00;29.00;;;21.60;64.30;;;;;;5017192;28;21025;-90
2023/03/18 21:07:57;;;;;;;30.63;27.33;;;21.60;64.30;;;;;;5017351;28;20503;-90
2023/03/18 21:10:26;;;;;;;31.67;28.40;;;21.60;64.30;;;;;;5017654;28;20440;-91
2023/03/18 21:12:53;;;;;;;31.50;28.30;;;21.50;64.20;;;;;;5017204;28;20490;-91
2023/03/18 21:15:23;;;;;;;31.83;28.63;;;21.50;64.20;;;;;;5034229;28;20956;-90
2023/03/18 21:17:50;;;;;;;30.17;26.97;;;21.60;64.30;;;;;;5037135;28;20536;-93
2023/03/18 21:20:19;;;;;;;30.93;27.60;;;21.50;64.20;;;;;;5037006;28;20453;-94
2023/03/18 21:22:47;;;;;;;27.27;24.27;;;21.50;64.20;;;;;;5037016;28;20573;-95
2023/03/18 21:25:21;;;;;;;18.40;16.50;;;21.50;64.20;;;;;;5037775;28;20443;-88
2023/03/18 21:27:49;;;;;;;22.87;18.90;;;21.70;62.80;;;;;;5019682;28;20484;-88
2023/03/18 21:30:18;;;;;;;22.90;20.47;;;21.50;63.00;;;;;;5017216;28;20462;-88
2023/03/18 21:32:46;;;;;;;24.77;22.17;;;21.50;63.10;;;;;;5016941;28;20443;-89
2023/03/18 21:35:18;;;;;;;24.80;22.13;;;21.50;63.50;;;;;;5018494;28;20451;-88
2023/03/18 21:37:45;;;;;;;27.20;22.83;;;21.50;63.80;;;;;;5017605;28;20442;-88
2023/03/18 21:40:16;;;;;;;27.03;23.87;;;21.50;64.00;;;;;;5017814;28;20450;-88
2023/03/18 21:42:45;;;;;;;26.87;23.83;;;21.50;64.10;;;;;;5017666;28;20505;-92
2023/03/18 21:45:13;;;;;;;24.93;22.30;;;21.50;64.20;;;;;;5016719;28;20449;-91
2023/03/18 21:47:40;;;;;;;29.07;25.97;;;21.50;64.10;;;;;;5017946;28;20522;-90
2023/03/18 21:50:08;;;;;;;23.83;21.27;;;21.50;64.30;;;;;;5018162;28;20451;-90
2023/03/18 21:52:36;;;;;;;24.93;22.43;;;21.50;64.20;;;;;;5017185;28;20451;-91
2023/03/18 21:55:05;;;;;;;24.47;21.90;;;21.50;64.30;;;;;;5018519;28;20448;-88
2023/03/18 21:57:32;;;;;;;25.17;22.67;;;21.50;64.30;;;;;;5016660;28;20858;-89
2023/03/18 22:00:01;;;;;;;23.70;21.30;;;21.50;64.30;;;;;;5015878;28;20538;-92
2023/03/18 22:02:30;;;;;;;24.83;21.73;;;21.50;64.30;;;;;;5016013;28;20562;-92
2023/03/18 22:04:59;;;;;;;22.47;20.03;;;21.50;64.30;;;;;;5016032;28;20446;-89
2023/03/18 22:07:26;;;;;;;24.03;21.17;;;21.50;64.30;;;;;;5016162;28;20440;-88
2023/03/18 22:09:53;;;;;;;23.60;21.13;;;21.50;64.20;;;;;;5016182;28;20469;-89
2023/03/18 22:12:23;;;;;;;21.73;19.40;;;21.50;64.30;;;;;;5016240;28;20923;-88
2023/03/18 22:14:50;;;;;;;21.43;19.13;;;21.50;64.20;;;;;;5015713;28;20450;-89
2023/03/18 22:17:24;;;;;;;21.67;19.53;;;21.60;64.40;;;;;;5015771;28;20804;-88
2023/03/18 22:19:51;;;;;;;23.67;21.27;;;21.50;64.30;;;;;;5015999;28;20825;-91
2023/03/18 22:22:20;;;;;;;21.07;18.97;;;21.50;64.40;;;;;;5015482;28;20541;-91
2023/03/18 22:24:48;;;;;;;19.73;17.83;;;21.50;64.30;;;;;;5015714;28;20852;-90
2023/03/18 22:27:19;;;;;;;22.27;19.43;;;21.50;64.30;;;;;;5015387;28;20439;-89
2023/03/18 22:29:47;;;;;;;19.90;17.90;;;21.50;64.30;;;;;;5015263;28;20456;-90
2023/03/18 22:32:36;;;;;;;20.90;18.60;;;21.50;64.30;;;;;;5015569;28;20966;-88
2023/03/18 22:35:12;;;;;;;21.47;19.20;;;21.50;64.10;;;;;;5012024;28;20456;-88
2023/03/18 22:37:40;;;;;;;20.93;18.87;;;21.50;64.10;;;;;;5015687;28;20764;-91
2023/03/18 22:40:10;;;;;;;18.57;16.67;;;21.50;64.10;;;;;;5014728;28;20452;-88
2023/03/18 22:42:36;;;;;;;21.60;19.10;;;21.50;64.10;;;;;;5015066;28;20579;-91
2023/03/18 22:45:04;;;;;;;22.27;16.67;;;21.50;64.10;;;;;;5014786;28;20443;-88
2023/03/18 22:47:31;;;;;;;22.20;19.90;;;21.50;64.10;;;;;;5015107;28;20447;-91
2023/03/18 22:49:57;;;;;;;19.17;17.33;;;21.60;64.20;;;;;;5014853;28;20446;-89
2023/03/18 22:52:29;;;;;;;18.07;16.37;;;21.50;64.00;;;;;;5014578;28;20447;-88
2023/03/18 22:54:58;;;;;;;19.80;17.90;;;21.50;64.00;;;;;;5015321;28;20501;-88
2023/03/18 22:57:26;;;;;;;18.63;16.87;;;21.40;63.90;;;;;;5015241;28;20446;-89
2023/03/18 22:59:54;;;;;;;19.30;17.50;;;21.40;63.90;;;;;;5015191;28;20466;-90
2023/03/18 23:02:23;;;;;;;18.03;16.30;;;21.40;63.80;;;;;;5014862;28;20994;-89
2023/03/18 23:04:52;;;;;;;16.63;15.03;;;21.40;63.80;;;;;;5014323;28;20954;-88
2023/03/18 23:07:26;;;;;;;19.63;17.37;;;21.40;63.80;;;;;;5014877;28;20996;-88
2023/03/18 23:09:54;;;;;;;18.17;16.27;;;21.40;63.70;;;;;;5015137;28;20439;-92
2023/03/18 23:12:22;;;;;;;18.13;16.43;;;21.40;63.70;;;;;;4996441;28;20432;-92
2023/03/18 23:14:49;;;;;;;19.43;17.47;;;21.40;63.70;;;;;;5014958;28;20818;-91
2023/03/18 23:17:16;;;;;;;18.40;16.70;;;21.40;63.70;;;;;;5014843;28;20438;-89
2023/03/18 23:19:44;;;;;;;16.50;15.00;;;21.40;63.70;;;;;;5014847;28;20443;-90
2023/03/18 23:22:11;;;;;;;16.63;15.03;;;21.40;63.60;;;;;;5014506;28;20487;-91